createdAt,value
2022-08-24T00:00:37.827Z,96470.69
2022-08-24T00:03:07.241Z,96467.69
2022-08-24T00:05:35.037Z,96459.84
2022-08-24T00:08:02.869Z,96454.53
2022-08-24T00:10:30.516Z,96463.22
2022-08-24T00:12:58.578Z,96460.25
2022-08-24T00:15:26.126Z,96463.56
2022-08-24T00:17:53.648Z,96468.34
2022-08-24T00:20:22.504Z,96459.00
2022-08-24T00:22:50.486Z,96464.66
2022-08-24T00:25:19.884Z,96465.28
2022-08-24T00:27:48.128Z,96472.31
2022-08-24T00:30:19.205Z,96461.22
2022-08-24T00:32:48.362Z,96457.13
2022-08-24T00:35:18.219Z,96461.00
2022-08-24T00:37:48.325Z,96460.59
2022-08-24T00:40:19.447Z,96452.72
2022-08-24T00:42:47.918Z,96459.59
2022-08-24T00:45:17.209Z,96461.66
2022-08-24T00:47:48.146Z,96459.66
2022-08-24T00:50:23.047Z,96459.66
2022-08-24T00:52:56.647Z,96455.38
2022-08-24T00:55:30.523Z,96465.41
2022-08-24T00:58:02.309Z,96463.06
2022-08-24T01:00:34.990Z,96467.59
2022-08-24T01:03:06.833Z,96464.91
2022-08-24T01:05:38.088Z,96462.06
2022-08-24T01:08:08.938Z,96463.66
2022-08-24T01:10:41.045Z,96466.66
2022-08-24T01:13:12.135Z,96468.81
2022-08-24T01:15:42.741Z,96470.06
2022-08-24T01:18:33.527Z,96461.00
2022-08-24T01:21:16.315Z,96463.44
2022-08-24T01:23:47.938Z,96458.88
2022-08-24T01:26:19.183Z,96454.69
2022-08-24T01:28:50.148Z,96448.44
2022-08-24T01:31:22.093Z,96454.78
2022-08-24T01:33:51.328Z,96451.16
2022-08-24T01:36:28.463Z,96444.38
2022-08-24T01:39:02.167Z,96445.81
2022-08-24T01:41:29.709Z,96445.97
2022-08-24T01:43:58.933Z,96450.53
2022-08-24T01:46:26.718Z,96446.81
2022-08-24T01:48:54.324Z,96446.38
2022-08-24T01:51:22.007Z,96449.88
2022-08-24T01:53:49.899Z,96445.34
2022-08-24T01:56:18.759Z,96448.81
2022-08-24T01:58:47.272Z,96446.72
2022-08-24T02:01:16.309Z,96442.28
2022-08-24T02:03:44.040Z,96444.13
2022-08-24T02:06:11.602Z,96452.84
2022-08-24T02:08:39.783Z,96454.53
2022-08-24T02:11:09.299Z,96451.75
2022-08-24T02:13:39.145Z,96454.84
2022-08-24T02:16:07.486Z,96455.00
2022-08-24T02:18:35.430Z,96457.78
2022-08-24T02:21:03.046Z,96453.94
2022-08-24T02:23:30.693Z,96450.81
2022-08-24T02:25:58.206Z,96459.88
2022-08-24T02:28:25.711Z,96461.78
2022-08-24T02:30:54.602Z,96466.72
2022-08-24T02:33:23.546Z,96456.63
2022-08-24T02:35:51.147Z,96464.94
2022-08-24T02:38:18.711Z,96461.25
2022-08-24T02:40:46.588Z,96462.88
2022-08-24T02:43:14.250Z,96457.16
2022-08-24T02:45:47.190Z,96462.97
2022-08-24T02:48:19.567Z,96462.72
2022-08-24T02:50:49.203Z,96464.44
2022-08-24T02:53:18.810Z,96466.09
2022-08-24T02:55:46.623Z,96466.50
2022-08-24T02:58:15.709Z,96466.63
2022-08-24T03:00:45.048Z,96463.25
2022-08-24T03:03:13.052Z,96464.50
2022-08-24T03:05:42.034Z,96467.34
2022-08-24T03:08:09.537Z,96474.38
2022-08-24T03:10:37.096Z,96461.25
2022-08-24T03:13:05.233Z,96477.91
2022-08-24T03:15:33.065Z,96472.13
2022-08-24T03:18:00.747Z,96474.66
2022-08-24T03:20:28.317Z,96470.25
2022-08-24T03:22:57.313Z,96477.31
2022-08-24T03:25:26.567Z,96475.03
2022-08-24T03:27:54.802Z,96472.50
2022-08-24T03:30:23.769Z,96477.22
2022-08-24T03:32:52.449Z,96478.03
2022-08-24T03:35:21.789Z,96479.22
2022-08-24T03:37:49.421Z,96474.19
2022-08-24T03:40:22.915Z,96473.06
2022-08-24T03:42:52.906Z,96485.22
2022-08-24T03:45:21.469Z,96477.16
2022-08-24T03:47:49.389Z,96487.81
2022-08-24T03:50:16.898Z,96478.78
2022-08-24T03:52:44.403Z,96478.94
2022-08-24T03:55:13.232Z,96489.88
2022-08-24T03:57:42.126Z,96491.03
2022-08-24T04:00:13.542Z,96499.31
2022-08-24T04:02:41.118Z,96491.13
2022-08-24T04:05:09.643Z,96492.28
2022-08-24T04:07:37.130Z,96488.59
2022-08-24T04:10:05.007Z,96492.03
2022-08-24T04:12:32.507Z,96487.22
2022-08-24T04:15:01.594Z,96484.63
2022-08-24T04:17:30.267Z,96489.06
2022-08-24T04:20:00.900Z,96489.38
2022-08-24T04:22:30.473Z,96484.94
2022-08-24T04:24:58.547Z,96481.66
2022-08-24T04:27:26.160Z,96484.34
2022-08-24T04:29:53.857Z,96487.03
2022-08-24T04:32:22.696Z,96491.41
2022-08-24T04:34:50.192Z,96487.09
2022-08-24T04:37:18.351Z,96482.47
2022-08-24T04:39:53.211Z,96482.75
2022-08-24T04:42:20.911Z,96489.69
2022-08-24T04:44:48.403Z,96500.72
2022-08-24T04:47:15.929Z,96503.47
2022-08-24T04:49:44.832Z,96504.66
2022-08-24T04:52:12.381Z,96498.41
2022-08-24T04:54:39.885Z,96505.47
2022-08-24T04:57:07.397Z,96498.41
2022-08-24T04:59:34.903Z,96501.94
2022-08-24T05:02:02.475Z,96505.53
2022-08-24T05:04:30.076Z,96502.72
2022-08-24T05:07:00.182Z,96511.91
2022-08-24T05:09:27.679Z,96509.53
2022-08-24T05:11:55.571Z,96511.38
2022-08-24T05:14:28.012Z,96503.91
2022-08-24T05:16:56.297Z,96497.94
2022-08-24T05:19:24.595Z,96503.41
2022-08-24T05:21:52.570Z,96507.00
2022-08-24T05:24:21.434Z,96505.44
2022-08-24T05:26:48.990Z,96498.88
2022-08-24T05:29:18.942Z,96501.75
2022-08-24T05:31:47.363Z,96506.28
2022-08-24T05:34:15.486Z,96506.78
2022-08-24T05:36:43.893Z,96500.84
2022-08-24T05:39:13.775Z,96501.88
2022-08-24T05:41:45.271Z,96507.44
2022-08-24T05:44:14.044Z,96506.75
2022-08-24T05:46:41.702Z,96507.81
2022-08-24T05:49:09.452Z,96510.66
2022-08-24T05:51:37.663Z,96519.84
2022-08-24T05:54:06.339Z,96518.84
2022-08-24T05:56:33.840Z,96518.38
2022-08-24T05:59:03.838Z,96515.97
2022-08-24T06:01:31.558Z,96522.31
2022-08-24T06:04:00.112Z,96510.16
2022-08-24T06:06:28.231Z,96516.97
2022-08-24T06:08:57.994Z,96519.75
2022-08-24T06:11:30.764Z,96518.44
2022-08-24T06:14:01.642Z,96522.47
2022-08-24T06:16:30.951Z,96515.59
2022-08-24T06:18:58.465Z,96517.06
2022-08-24T06:21:28.702Z,96515.34
2022-08-24T06:23:57.064Z,96520.53
2022-08-24T06:26:42.282Z,96522.25
2022-08-24T06:29:10.875Z,96519.56
2022-08-24T06:31:42.377Z,96526.72
2022-08-24T06:34:12.047Z,96523.75
2022-08-24T06:36:40.231Z,96516.06
2022-08-24T06:39:08.620Z,96525.59
2022-08-24T06:41:38.140Z,96523.53
2022-08-24T06:44:06.706Z,96522.69
2022-08-24T06:46:36.207Z,96521.16
2022-08-24T06:49:05.388Z,96535.28
2022-08-24T06:51:33.426Z,96534.66
2022-08-24T06:54:01.349Z,96530.47
2022-08-24T06:56:28.873Z,96531.69
2022-08-24T06:58:56.636Z,96545.75
2022-08-24T07:01:26.011Z,96542.41
2022-08-24T07:03:53.794Z,96541.97
2022-08-24T07:06:23.143Z,96544.78
2022-08-24T07:08:51.665Z,96545.94
2022-08-24T07:11:21.980Z,96541.78
2022-08-24T07:13:50.868Z,96543.28
2022-08-24T07:16:20.125Z,96543.34
2022-08-24T07:18:50.260Z,96548.78
2022-08-24T07:21:19.455Z,96545.47
2022-08-24T07:23:49.103Z,96550.38
2022-08-24T07:26:21.793Z,96548.88
2022-08-24T07:28:50.165Z,96549.75
2022-08-24T07:31:17.807Z,96548.13
2022-08-24T07:33:45.727Z,96551.03
2022-08-24T07:36:17.055Z,96550.31
2022-08-24T07:38:53.111Z,96554.47
2022-08-24T07:41:56.649Z,96547.59
2022-08-24T07:44:15.455Z,96545.66
2022-08-24T07:46:43.658Z,96546.47
2022-08-24T07:49:29.353Z,96548.31
2022-08-24T07:51:59.880Z,96549.28
2022-08-24T07:54:29.687Z,96537.88
2022-08-24T07:56:59.958Z,96542.13
2022-08-24T07:59:27.475Z,96533.38
2022-08-24T08:01:55.028Z,96536.06
2022-08-24T08:04:25.150Z,96537.97
2022-08-24T08:06:52.733Z,96538.72
2022-08-24T08:09:20.317Z,96538.69
2022-08-24T08:11:49.296Z,96538.41
2022-08-24T08:14:16.827Z,96528.38
2022-08-24T08:16:44.384Z,96531.44
2022-08-24T08:19:11.948Z,96534.72
2022-08-24T08:22:00.547Z,96539.38
2022-08-24T08:24:28.308Z,96536.00
2022-08-24T08:26:59.233Z,96542.63
2022-08-24T08:29:27.217Z,96553.75
2022-08-24T08:31:55.500Z,96546.44
2022-08-24T08:34:23.058Z,96550.81
2022-08-24T08:36:51.242Z,96546.50
2022-08-24T08:39:20.745Z,96542.72
2022-08-24T08:42:14.904Z,96550.06
2022-08-24T08:44:53.179Z,96545.13
2022-08-24T08:47:45.550Z,96545.19
2022-08-24T08:50:16.960Z,96544.41
2022-08-24T08:53:25.454Z,96537.00
2022-08-24T08:56:03.766Z,96540.50
2022-08-24T08:58:57.692Z,96537.13
2022-08-24T09:01:36.210Z,96542.06
2022-08-24T09:04:35.198Z,96548.19
2022-08-24T09:07:16.628Z,96553.53
2022-08-24T09:10:20.954Z,96551.38
2022-08-24T09:13:02.783Z,96554.56
2022-08-24T09:15:45.695Z,96549.59
2022-08-24T09:18:26.732Z,96546.47
2022-08-24T09:21:10.227Z,96540.31
2022-08-24T09:23:52.560Z,96530.72
2022-08-24T09:26:27.408Z,96540.97
2022-08-24T09:29:05.419Z,96531.63
2022-08-24T09:31:50.977Z,96529.50
2022-08-24T09:34:28.639Z,96533.97
2022-08-24T09:37:04.561Z,96549.19
2022-08-24T09:39:53.627Z,96540.03
2022-08-24T09:42:50.773Z,96536.72
2022-08-24T09:45:37.014Z,96544.88
2022-08-24T09:48:34.104Z,96544.88
2022-08-24T09:51:24.532Z,96543.78
2022-08-24T09:54:24.594Z,96551.16
2022-08-24T09:57:13.750Z,96546.94
2022-08-24T09:59:59.385Z,96544.09
2022-08-24T10:02:45.871Z,96536.84
2022-08-24T10:05:27.071Z,96544.19
2022-08-24T10:08:05.062Z,96532.78
2022-08-24T10:10:42.710Z,96532.38
2022-08-24T10:13:24.114Z,96525.53
2022-08-24T10:16:07.250Z,96526.94
2022-08-24T10:18:46.013Z,96525.84
2022-08-24T10:21:24.634Z,96523.84
2022-08-24T10:24:07.896Z,96517.34
2022-08-24T10:26:49.935Z,96510.03
2022-08-24T10:29:33.698Z,96514.06
2022-08-24T10:32:15.129Z,96517.03
2022-08-24T10:35:01.149Z,96516.22
2022-08-24T10:38:33.857Z,96514.38
2022-08-24T10:41:21.385Z,96511.41
2022-08-24T10:44:08.668Z,96525.22
2022-08-24T10:46:49.026Z,96515.84
2022-08-24T10:49:57.790Z,96523.28
2022-08-24T10:52:54.056Z,96511.53
2022-08-24T10:55:26.687Z,96512.56
2022-08-24T10:58:08.174Z,96502.25
2022-08-24T11:00:36.202Z,96506.72
2022-08-24T11:03:13.076Z,96508.31
2022-08-24T11:05:47.886Z,96503.81
2022-08-24T11:08:21.980Z,96503.88
2022-08-24T11:11:08.958Z,96504.66
2022-08-24T11:13:50.245Z,96505.09
2022-08-24T11:16:25.344Z,96507.06
2022-08-24T11:18:55.812Z,96502.56
2022-08-24T11:21:37.130Z,96505.47
2022-08-24T11:24:08.571Z,96504.72
2022-08-24T11:26:53.666Z,96500.81
2022-08-24T11:29:27.330Z,96506.91
2022-08-24T11:31:55.019Z,96497.66
2022-08-24T11:34:33.584Z,96507.13
2022-08-24T11:37:01.348Z,96503.91
2022-08-24T11:39:33.763Z,96506.19
2022-08-24T11:42:12.754Z,96515.41
2022-08-24T11:44:49.685Z,96512.16
2022-08-24T11:47:45.111Z,96515.75
2022-08-24T11:50:25.333Z,96509.69
2022-08-24T11:53:03.835Z,96507.44
2022-08-24T11:55:47.449Z,96505.66
2022-08-24T11:58:28.108Z,96510.31
2022-08-24T12:01:05.878Z,96515.72
2022-08-24T12:03:51.885Z,96512.09
2022-08-24T12:06:32.521Z,96512.91
2022-08-24T12:09:07.017Z,96513.19
2022-08-24T12:11:41.554Z,96509.81
2022-08-24T12:14:17.409Z,96524.06
2022-08-24T12:16:55.836Z,96512.47
2022-08-24T12:19:28.470Z,96519.13
2022-08-24T12:21:58.942Z,96515.44
2022-08-24T12:24:32.046Z,96516.00
2022-08-24T12:27:04.278Z,96515.38
2022-08-24T12:29:37.650Z,96516.47
2022-08-24T12:32:11.225Z,96510.47
2022-08-24T12:34:50.054Z,96503.38
2022-08-24T12:37:23.188Z,96510.63
2022-08-24T12:39:58.458Z,96503.97
2022-08-24T12:42:33.858Z,96500.00
2022-08-24T12:45:06.716Z,96497.00
2022-08-24T12:47:43.575Z,96501.09
2022-08-24T12:50:14.946Z,96493.34
2022-08-24T12:53:12.154Z,96494.03
2022-08-24T12:55:58.392Z,96495.53
2022-08-24T12:58:54.529Z,96490.81
2022-08-24T13:01:29.568Z,96489.19
2022-08-24T13:04:09.236Z,96494.88
2022-08-24T13:06:43.527Z,96477.69
2022-08-24T13:09:17.911Z,96487.91
2022-08-24T13:11:45.546Z,96481.41
2022-08-24T13:14:20.905Z,96491.34
2022-08-24T13:16:52.775Z,96485.03
2022-08-24T13:19:38.599Z,96473.88
2022-08-24T13:22:38.333Z,96477.53
2022-08-24T13:25:25.550Z,96470.44
2022-08-24T13:28:08.410Z,96481.34
2022-08-24T13:31:19.205Z,96482.25
2022-08-24T13:33:49.751Z,96481.56
2022-08-24T13:36:55.915Z,96477.03
2022-08-24T13:39:47.325Z,96476.56
2022-08-24T13:42:30.318Z,96472.84
2022-08-24T13:45:22.868Z,96475.56
2022-08-24T13:48:04.027Z,96477.06
2022-08-24T13:50:37.839Z,96469.16
2022-08-24T13:53:30.858Z,96469.66
2022-08-24T13:56:33.716Z,96465.66
2022-08-24T13:59:09.650Z,96460.78
2022-08-24T14:01:49.761Z,96454.19
2022-08-24T14:04:32.918Z,96464.31
2022-08-24T14:07:07.715Z,96469.25
2022-08-24T14:09:47.118Z,96465.56
2022-08-24T14:12:35.278Z,96462.66
2022-08-24T14:15:19.136Z,96462.69
2022-08-24T14:17:54.078Z,96468.88
2022-08-24T14:20:44.051Z,96468.16
2022-08-24T14:23:27.869Z,96466.44
2022-08-24T14:26:28.706Z,96462.22
2022-08-24T14:29:31.583Z,96473.34
2022-08-24T14:32:27.808Z,96467.25
2022-08-24T14:35:04.244Z,96464.22
2022-08-24T14:37:56.788Z,96465.09
2022-08-24T14:40:35.047Z,96455.59
2022-08-24T14:43:30.047Z,96453.06
2022-08-24T14:46:12.215Z,96462.28
2022-08-24T14:48:49.119Z,96463.22
2022-08-24T14:51:34.975Z,96458.97
2022-08-24T14:54:17.043Z,96460.81
2022-08-24T14:56:56.922Z,96457.13
2022-08-24T14:59:38.819Z,96455.03
2022-08-24T15:02:43.939Z,96454.97
2022-08-24T15:05:22.237Z,96459.16
2022-08-24T15:07:56.956Z,96456.13
2022-08-24T15:10:28.758Z,96458.38
2022-08-24T15:13:03.525Z,96455.63
2022-08-24T15:15:36.223Z,96459.09
2022-08-24T15:18:15.622Z,96444.16
2022-08-24T15:21:04.023Z,96444.94
2022-08-24T15:23:46.463Z,96442.13
2022-08-24T15:26:19.942Z,96438.81
2022-08-24T15:28:56.569Z,96437.41
2022-08-24T15:31:29.023Z,96436.25
2022-08-24T15:34:00.156Z,96440.72
2022-08-24T15:36:30.044Z,96440.28
2022-08-24T15:38:58.040Z,96439.00
2022-08-24T15:41:30.897Z,96450.00
2022-08-24T15:44:00.998Z,96447.03
2022-08-24T15:46:32.844Z,96433.00
2022-08-24T15:49:05.374Z,96435.53
2022-08-24T15:51:44.655Z,96429.03
2022-08-24T15:54:30.007Z,96437.47
2022-08-24T15:57:00.636Z,96432.25
2022-08-24T15:59:31.772Z,96434.84
2022-08-24T16:02:33.269Z,96436.84
2022-08-24T16:05:14.331Z,96428.59
2022-08-24T16:08:07.563Z,96431.13
2022-08-24T16:10:39.116Z,96428.50
2022-08-24T16:13:29.369Z,96433.00
2022-08-24T16:16:03.440Z,96437.25
2022-08-24T16:18:49.033Z,96432.06
2022-08-24T16:21:22.374Z,96428.72
2022-08-24T16:23:56.622Z,96438.97
2022-08-24T16:26:28.965Z,96435.00
2022-08-24T16:28:57.545Z,96441.97
2022-08-24T16:31:45.151Z,96436.25
2022-08-24T16:34:21.144Z,96436.59
2022-08-24T16:36:50.607Z,96444.63
2022-08-24T16:39:18.166Z,96441.69
2022-08-24T16:41:45.751Z,96436.56
2022-08-24T16:44:13.556Z,96433.19
2022-08-24T16:46:41.363Z,96432.94
2022-08-24T16:49:12.714Z,96428.84
2022-08-24T16:51:45.156Z,96432.47
2022-08-24T16:54:14.882Z,96444.81
2022-08-24T16:56:43.117Z,96431.78
2022-08-24T16:59:25.171Z,96434.66
2022-08-24T17:01:52.741Z,96434.53
2022-08-24T17:04:20.474Z,96438.53
2022-08-24T17:06:49.766Z,96438.00
2022-08-24T17:09:20.287Z,96441.25
2022-08-24T17:11:48.023Z,96431.63
2022-08-24T17:14:17.040Z,96429.91
2022-08-24T17:16:44.809Z,96432.59
2022-08-24T17:19:15.436Z,96430.50
2022-08-24T17:21:45.538Z,96427.50
2022-08-24T17:24:13.381Z,96424.34
2022-08-24T17:26:44.937Z,96436.25
2022-08-24T17:29:18.433Z,96434.91
2022-08-24T17:31:49.721Z,96432.63
2022-08-24T17:34:17.931Z,96434.41
2022-08-24T17:36:46.183Z,96428.25
2022-08-24T17:39:15.368Z,96431.84
2022-08-24T17:41:44.607Z,96432.69
2022-08-24T17:44:20.970Z,96441.44
2022-08-24T17:46:50.352Z,96431.25
2022-08-24T17:49:18.321Z,96434.94
2022-08-24T17:51:45.939Z,96444.97
2022-08-24T17:54:13.589Z,96439.56
2022-08-24T17:56:41.460Z,96434.09
2022-08-24T17:59:23.522Z,96430.78
2022-08-24T18:01:52.187Z,96429.63
2022-08-24T18:04:20.942Z,96429.19
2022-08-24T18:06:49.372Z,96439.19
2022-08-24T18:09:28.718Z,96452.97
2022-08-24T18:11:57.455Z,96444.97
2022-08-24T18:14:26.751Z,96447.09
2022-08-24T18:16:57.364Z,96445.56
2022-08-24T18:19:26.426Z,96447.28
2022-08-24T18:21:54.299Z,96457.84
2022-08-24T18:24:21.916Z,96456.59
2022-08-24T18:26:50.238Z,96462.75
2022-08-24T18:29:20.909Z,96454.06
2022-08-24T18:31:50.454Z,96462.81
2022-08-24T18:34:21.725Z,96465.44
2022-08-24T18:36:49.638Z,96468.75
2022-08-24T18:39:17.287Z,96472.88
2022-08-24T18:41:49.203Z,96477.69
2022-08-24T18:44:19.495Z,96477.69
2022-08-24T18:46:47.817Z,96479.13
2022-08-24T18:49:17.123Z,96485.81
2022-08-24T18:51:45.234Z,96491.84
2022-08-24T18:54:16.385Z,96491.63
2022-08-24T18:56:45.256Z,96493.19
2022-08-24T18:59:15.083Z,96488.94
2022-08-24T19:02:01.675Z,96485.47
2022-08-24T19:04:33.499Z,96484.28
2022-08-24T19:07:01.613Z,96491.41
2022-08-24T19:09:33.984Z,96498.03
2022-08-24T19:12:02.348Z,96492.00
2022-08-24T19:14:29.836Z,96492.09
2022-08-24T19:16:57.722Z,96493.75
2022-08-24T19:19:25.232Z,96490.72
2022-08-24T19:21:54.980Z,96489.81
2022-08-24T19:24:26.203Z,96494.59
2022-08-24T19:26:54.009Z,96494.84
2022-08-24T19:29:38.919Z,96492.75
2022-08-24T19:32:22.047Z,96499.22
2022-08-24T19:34:50.310Z,96501.16
2022-08-24T19:37:19.655Z,96489.34
2022-08-24T19:39:47.799Z,96496.47
2022-08-24T19:42:17.162Z,96499.69
2022-08-24T19:45:02.401Z,96497.56
2022-08-24T19:47:34.208Z,96502.88
2022-08-24T19:50:02.296Z,96501.78
2022-08-24T19:52:33.559Z,96498.47
2022-08-24T19:55:01.978Z,96493.38
2022-08-24T19:57:36.281Z,96501.94
2022-08-24T20:00:20.193Z,96493.25
2022-08-24T20:02:48.955Z,96499.66
2022-08-24T20:05:17.917Z,96512.72
2022-08-24T20:07:47.717Z,96505.00
2022-08-24T20:10:17.306Z,96505.22
2022-08-24T20:12:44.834Z,96504.41
2022-08-24T20:15:13.309Z,96512.72
2022-08-24T20:17:41.410Z,96508.50
2022-08-24T20:20:11.798Z,96503.81
2022-08-24T20:22:39.395Z,96509.22
2022-08-24T20:25:09.304Z,96523.13
2022-08-24T20:27:37.356Z,96524.97
2022-08-24T20:30:06.321Z,96521.97
2022-08-24T20:32:33.859Z,96516.03
2022-08-24T20:35:02.585Z,96520.50
2022-08-24T20:37:32.828Z,96526.41
2022-08-24T20:40:01.302Z,96522.25
2022-08-24T20:42:31.627Z,96522.13
2022-08-24T20:45:00.391Z,96521.94
2022-08-24T20:47:28.154Z,96512.44
2022-08-24T20:49:55.976Z,96528.66
2022-08-24T20:52:23.467Z,96523.31
2022-08-24T20:54:50.972Z,96525.53
2022-08-24T20:57:21.399Z,96530.34
2022-08-24T20:59:50.237Z,96529.72
2022-08-24T21:02:17.751Z,96525.75
2022-08-24T21:04:45.446Z,96531.31
2022-08-24T21:07:13.500Z,96526.41
2022-08-24T21:09:41.236Z,96525.97
2022-08-24T21:12:09.221Z,96524.31
2022-08-24T21:14:36.758Z,96522.66
2022-08-24T21:17:06.736Z,96513.13
2022-08-24T21:19:34.404Z,96521.03
2022-08-24T21:22:02.147Z,96524.06
2022-08-24T21:24:29.666Z,96529.97
2022-08-24T21:26:57.187Z,96516.63
2022-08-24T21:29:24.701Z,96522.34
2022-08-24T21:32:10.098Z,96520.22
2022-08-24T21:34:41.860Z,96511.88
2022-08-24T21:37:10.579Z,96519.88
2022-08-24T21:39:38.382Z,96519.53
2022-08-24T21:42:06.470Z,96518.66
2022-08-24T21:44:34.144Z,96517.03
2022-08-24T21:47:03.627Z,96522.00
2022-08-24T21:49:31.294Z,96522.63
2022-08-24T21:52:00.128Z,96513.91
2022-08-24T21:54:27.675Z,96511.53
2022-08-24T21:56:55.262Z,96505.09
2022-08-24T21:59:22.923Z,96507.84
2022-08-24T22:01:50.478Z,96505.63
2022-08-24T22:04:18.194Z,96504.69
2022-08-24T22:06:45.791Z,96505.97
2022-08-24T22:09:14.872Z,96495.09
2022-08-24T22:11:42.716Z,96498.25
2022-08-24T22:14:10.355Z,96495.09
2022-08-24T22:16:38.043Z,96502.38
2022-08-24T22:19:05.875Z,96504.09
2022-08-24T22:21:36.176Z,96494.00
2022-08-24T22:24:04.738Z,96496.63
2022-08-24T22:26:34.142Z,96495.78
2022-08-24T22:29:02.433Z,96506.00
2022-08-24T22:31:32.833Z,96494.34
2022-08-24T22:34:02.862Z,96496.41
2022-08-24T22:36:30.910Z,96501.16
2022-08-24T22:38:59.805Z,96502.25
2022-08-24T22:41:28.140Z,96502.06
2022-08-24T22:44:19.864Z,96499.34
2022-08-24T22:46:47.844Z,96492.50
2022-08-24T22:49:15.573Z,96492.19
2022-08-24T22:51:43.793Z,96489.72
2022-08-24T22:54:11.972Z,96488.03
2022-08-24T22:56:42.816Z,96484.06
2022-08-24T22:59:15.995Z,96484.38
2022-08-24T23:01:45.726Z,96481.91
2022-08-24T23:04:15.712Z,96483.91
2022-08-24T23:06:43.681Z,96491.78
2022-08-24T23:09:12.029Z,96487.25
2022-08-24T23:11:40.126Z,96480.09
2022-08-24T23:14:09.037Z,96482.66
2022-08-24T23:16:40.671Z,96484.31
2022-08-24T23:19:26.515Z,96484.72
2022-08-24T23:21:54.774Z,96477.84
2022-08-24T23:24:23.066Z,96480.00
2022-08-24T23:26:50.983Z,96486.06
2022-08-24T23:29:18.980Z,96480.19
2022-08-24T23:31:48.766Z,96479.03
2022-08-24T23:34:17.397Z,96479.06
2022-08-24T23:36:45.961Z,96480.16
2022-08-24T23:39:14.407Z,96476.69
2022-08-24T23:41:44.202Z,96478.19
2022-08-24T23:44:16.260Z,96474.13
2022-08-24T23:46:45.258Z,96466.72
2022-08-24T23:49:16.743Z,96464.28
2022-08-24T23:51:44.289Z,96468.88
2022-08-24T23:54:12.319Z,96457.69
2022-08-24T23:56:43.166Z,96466.59
2022-08-24T23:59:13.815Z,96461.03
